createdAt,value
2023-04-11T00:00:37.828Z,95242.44
2023-04-11T00:03:13.564Z,95247.84
2023-04-11T00:05:40.419Z,95239.31
2023-04-11T00:08:07.135Z,95219.41
2023-04-11T00:10:34.001Z,95226.50
2023-04-11T00:13:00.672Z,95221.19
2023-04-11T00:15:27.290Z,95235.69
2023-04-11T00:17:54.239Z,95232.91
2023-04-11T00:20:22.047Z,95236.59
2023-04-11T00:22:48.686Z,95228.84
2023-04-11T00:25:15.449Z,95229.19
2023-04-11T00:27:42.123Z,95233.34
2023-04-11T00:30:09.020Z,95249.72
2023-04-11T00:32:35.806Z,95252.19
2023-04-11T00:35:02.571Z,95256.44
2023-04-11T00:37:29.195Z,95256.06
2023-04-11T00:39:56.275Z,95239.56
2023-04-11T00:42:22.928Z,95227.69
2023-04-11T00:44:49.713Z,95225.72
2023-04-11T00:47:16.389Z,95229.81
2023-04-11T00:49:43.463Z,95221.91
2023-04-11T00:52:10.165Z,95220.91
2023-04-11T00:54:36.872Z,95218.78
2023-04-11T00:57:04.956Z,95212.00
2023-04-11T00:59:32.791Z,95207.28
2023-04-11T01:02:01.227Z,95208.63
2023-04-11T01:04:28.064Z,95200.66
2023-04-11T01:07:01.037Z,95189.38
2023-04-11T01:09:28.829Z,95198.31
2023-04-11T01:11:56.971Z,95207.66
2023-04-11T01:14:29.625Z,95200.09
2023-04-11T01:16:57.407Z,95191.41
2023-04-11T01:19:26.240Z,95197.75
2023-04-11T01:21:56.027Z,95212.56
2023-04-11T01:24:22.990Z,95218.19
2023-04-11T01:26:49.838Z,95226.72
2023-04-11T01:29:16.495Z,95229.69
2023-04-11T01:31:44.449Z,95232.00
2023-04-11T01:34:12.098Z,95232.66
2023-04-11T01:36:39.126Z,95226.06
2023-04-11T01:39:05.801Z,95222.69
2023-04-11T01:41:34.577Z,95221.72
2023-04-11T01:44:03.293Z,95223.66
2023-04-11T01:46:30.692Z,95234.06
2023-04-11T01:48:59.484Z,95245.06
2023-04-11T01:51:29.383Z,95250.91
2023-04-11T01:53:55.996Z,95245.31
2023-04-11T01:56:22.803Z,95257.78
2023-04-11T01:58:49.656Z,95253.25
2023-04-11T02:01:20.332Z,95247.13
2023-04-11T02:03:47.080Z,95244.50
2023-04-11T02:06:16.252Z,95237.66
2023-04-11T02:08:44.072Z,95229.34
2023-04-11T02:11:10.972Z,95232.00
2023-04-11T02:13:40.416Z,95225.50
2023-04-11T02:16:09.347Z,95225.69
2023-04-11T02:18:36.612Z,95228.81
2023-04-11T02:21:03.869Z,95236.84
2023-04-11T02:23:33.762Z,95246.09
2023-04-11T02:26:01.713Z,95247.94
2023-04-11T02:28:28.576Z,95248.63
2023-04-11T02:30:55.741Z,95249.72
2023-04-11T02:33:23.184Z,95237.94
2023-04-11T02:35:50.106Z,95223.41
2023-04-11T02:38:16.765Z,95231.44
2023-04-11T02:40:43.357Z,95235.03
2023-04-11T02:43:10.067Z,95235.78
2023-04-11T02:45:36.694Z,95238.13
2023-04-11T02:48:03.565Z,95232.88
2023-04-11T02:50:30.257Z,95239.47
2023-04-11T02:52:56.910Z,95245.31
2023-04-11T02:55:23.802Z,95255.50
2023-04-11T02:57:51.350Z,95254.56
2023-04-11T03:00:20.787Z,95253.97
2023-04-11T03:02:47.534Z,95257.91
2023-04-11T03:05:15.336Z,95257.47
2023-04-11T03:07:42.020Z,95274.72
2023-04-11T03:10:09.026Z,95270.81
2023-04-11T03:12:35.638Z,95275.69
2023-04-11T03:15:02.247Z,95276.28
2023-04-11T03:17:29.872Z,95281.50
2023-04-11T03:19:56.521Z,95272.09
2023-04-11T03:22:23.969Z,95263.31
2023-04-11T03:24:50.705Z,95260.38
2023-04-11T03:27:17.310Z,95259.16
2023-04-11T03:29:43.913Z,95259.44
2023-04-11T03:32:10.674Z,95269.75
2023-04-11T03:34:37.329Z,95273.00
2023-04-11T03:37:04.042Z,95269.66
2023-04-11T03:39:30.646Z,95276.94
2023-04-11T03:41:57.318Z,95268.72
2023-04-11T03:44:24.034Z,95268.00
2023-04-11T03:46:50.786Z,95258.84
2023-04-11T03:49:17.430Z,95252.44
2023-04-11T03:51:44.044Z,95244.59
2023-04-11T03:54:10.760Z,95239.03
2023-04-11T03:56:37.530Z,95241.97
2023-04-11T03:59:04.172Z,95228.53
2023-04-11T04:01:30.882Z,95227.03
2023-04-11T04:03:57.776Z,95225.19
2023-04-11T04:06:24.640Z,95231.38
2023-04-11T04:08:51.246Z,95228.72
2023-04-11T04:11:17.863Z,95228.00
2023-04-11T04:13:44.461Z,95229.84
2023-04-11T04:16:11.153Z,95229.34
2023-04-11T04:18:37.853Z,95220.84
2023-04-11T04:21:04.648Z,95229.41
2023-04-11T04:23:31.285Z,95225.97
2023-04-11T04:25:57.919Z,95227.81
2023-04-11T04:28:24.599Z,95236.84
2023-04-11T04:30:51.437Z,95230.78
2023-04-11T04:33:18.336Z,95225.81
2023-04-11T04:35:44.973Z,95233.13
2023-04-11T04:38:11.646Z,95231.25
2023-04-11T04:40:38.268Z,95242.63
2023-04-11T04:43:04.862Z,95248.59
2023-04-11T04:45:32.629Z,95250.41
2023-04-11T04:47:59.389Z,95261.31
2023-04-11T04:50:26.018Z,95265.25
2023-04-11T04:52:52.628Z,95267.13
2023-04-11T04:55:19.271Z,95274.97
2023-04-11T04:57:46.323Z,95281.75
2023-04-11T05:00:13.215Z,95296.06
2023-04-11T05:02:39.934Z,95295.69
2023-04-11T05:05:07.170Z,95290.47
2023-04-11T05:07:33.877Z,95295.41
2023-04-11T05:10:00.542Z,95290.53
2023-04-11T05:12:27.287Z,95283.47
2023-04-11T05:14:53.983Z,95286.41
2023-04-11T05:17:21.838Z,95278.56
2023-04-11T05:19:49.960Z,95280.19
2023-04-11T05:22:16.673Z,95295.00
2023-04-11T05:24:43.343Z,95295.25
2023-04-11T05:27:09.984Z,95293.91
2023-04-11T05:29:36.617Z,95291.88
2023-04-11T05:32:03.260Z,95300.03
2023-04-11T05:34:32.429Z,95305.03
2023-04-11T05:36:59.081Z,95294.75
2023-04-11T05:39:25.738Z,95305.91
2023-04-11T05:41:52.443Z,95306.97
2023-04-11T05:44:19.093Z,95315.47
2023-04-11T05:46:45.709Z,95317.94
2023-04-11T05:49:12.342Z,95335.66
2023-04-11T05:51:38.939Z,95343.06
2023-04-11T05:54:05.594Z,95346.56
2023-04-11T05:56:32.195Z,95350.59
2023-04-11T05:58:58.831Z,95333.09
2023-04-11T06:01:25.435Z,95335.06
2023-04-11T06:03:52.509Z,95332.00
2023-04-11T06:06:19.171Z,95324.50
2023-04-11T06:08:45.817Z,95331.31
2023-04-11T06:11:12.466Z,95352.22
2023-04-11T06:13:39.152Z,95364.59
2023-04-11T06:16:06.774Z,95361.47
2023-04-11T06:18:33.456Z,95350.00
2023-04-11T06:21:00.060Z,95354.13
2023-04-11T06:23:26.850Z,95367.94
2023-04-11T06:25:53.514Z,95373.38
2023-04-11T06:28:20.132Z,95367.31
2023-04-11T06:30:46.758Z,95356.72
2023-04-11T06:33:13.465Z,95340.25
2023-04-11T06:35:40.241Z,95342.75
2023-04-11T06:38:07.005Z,95336.34
2023-04-11T06:40:34.203Z,95336.31
2023-04-11T06:43:01.188Z,95349.38
2023-04-11T06:45:27.839Z,95361.22
2023-04-11T06:47:54.885Z,95352.91
2023-04-11T06:50:21.637Z,95345.19
2023-04-11T06:52:48.387Z,95341.63
2023-04-11T06:55:15.013Z,95357.88
2023-04-11T06:57:43.601Z,95370.47
2023-04-11T07:00:10.591Z,95377.69
2023-04-11T07:02:37.347Z,95377.25
2023-04-11T07:05:04.194Z,95375.69
2023-04-11T07:07:30.825Z,95373.34
2023-04-11T07:09:57.550Z,95374.50
2023-04-11T07:12:24.172Z,95370.56
2023-04-11T07:14:53.733Z,95378.78
2023-04-11T07:17:20.333Z,95373.41
2023-04-11T07:19:46.953Z,95369.56
2023-04-11T07:22:13.554Z,95369.81
2023-04-11T07:24:40.184Z,95371.63
2023-04-11T07:27:06.810Z,95379.03
2023-04-11T07:29:38.975Z,95388.53
2023-04-11T07:32:05.713Z,95389.06
2023-04-11T07:34:32.365Z,95388.53
2023-04-11T07:36:59.026Z,95379.19
2023-04-11T07:39:25.716Z,95374.03
2023-04-11T07:41:53.415Z,95373.59
2023-04-11T07:44:20.042Z,95378.88
2023-04-11T07:46:46.753Z,95372.16
2023-04-11T07:49:13.359Z,95368.75
2023-04-11T07:51:39.961Z,95362.78
2023-04-11T07:54:06.593Z,95372.22
2023-04-11T07:56:33.189Z,95361.31
2023-04-11T07:58:59.805Z,95364.13
2023-04-11T08:01:26.833Z,95367.16
2023-04-11T08:03:55.215Z,95361.81
2023-04-11T08:06:22.649Z,95362.78
2023-04-11T08:08:51.361Z,95354.88
2023-04-11T08:11:18.056Z,95350.81
2023-04-11T08:13:44.699Z,95356.81
2023-04-11T08:16:12.243Z,95349.22
2023-04-11T08:18:39.000Z,95354.84
2023-04-11T08:21:05.896Z,95357.44
2023-04-11T08:23:32.593Z,95354.03
2023-04-11T08:25:59.229Z,95358.78
2023-04-11T08:28:25.905Z,95350.56
2023-04-11T08:30:52.590Z,95356.44
2023-04-11T08:33:20.431Z,95351.59
2023-04-11T08:35:47.274Z,95360.84
2023-04-11T08:38:14.046Z,95365.00
2023-04-11T08:40:40.717Z,95365.50
2023-04-11T08:43:09.648Z,95371.19
2023-04-11T08:45:36.317Z,95379.47
2023-04-11T08:48:03.124Z,95388.78
2023-04-11T08:50:31.078Z,95381.59
2023-04-11T08:53:02.754Z,95386.88
2023-04-11T08:55:30.621Z,95380.78
2023-04-11T08:57:57.310Z,95376.22
2023-04-11T09:00:25.462Z,95377.91
2023-04-11T09:02:56.452Z,95375.00
2023-04-11T09:05:27.343Z,95366.97
2023-04-11T09:07:54.048Z,95371.44
2023-04-11T09:10:21.750Z,95376.31
2023-04-11T09:12:48.502Z,95374.00
2023-04-11T09:15:24.051Z,95373.66
2023-04-11T09:17:51.506Z,95373.88
2023-04-11T09:20:20.830Z,95362.69
2023-04-11T09:22:50.167Z,95364.31
2023-04-11T09:25:18.557Z,95364.53
2023-04-11T09:27:45.386Z,95366.63
2023-04-11T09:30:25.945Z,95372.41
2023-04-11T09:32:54.147Z,95369.75
2023-04-11T09:35:22.988Z,95366.63
2023-04-11T09:37:49.585Z,95373.75
2023-04-11T09:40:18.565Z,95387.31
2023-04-11T09:42:47.218Z,95382.44
2023-04-11T09:45:25.095Z,95375.66
2023-04-11T09:47:54.187Z,95365.97
2023-04-11T09:50:21.048Z,95365.13
2023-04-11T09:52:48.394Z,95366.13
2023-04-11T09:55:20.072Z,95367.66
2023-04-11T09:57:52.992Z,95360.25
2023-04-11T10:00:22.767Z,95356.94
2023-04-11T10:02:51.237Z,95360.94
2023-04-11T10:05:20.279Z,95370.09
2023-04-11T10:07:52.278Z,95355.31
2023-04-11T10:10:24.433Z,95356.78
2023-04-11T10:12:51.722Z,95359.19
2023-04-11T10:15:19.204Z,95362.38
2023-04-11T10:18:07.774Z,95359.53
2023-04-11T10:20:40.483Z,95344.81
2023-04-11T10:23:07.122Z,95340.25
2023-04-11T10:25:55.506Z,95340.28
2023-04-11T10:28:37.009Z,95336.94
2023-04-11T10:31:07.153Z,95330.22
2023-04-11T10:33:34.614Z,95329.81
2023-04-11T10:36:04.215Z,95340.38
2023-04-11T10:38:36.702Z,95339.03
2023-04-11T10:41:23.177Z,95343.78
2023-04-11T10:43:49.963Z,95331.75
2023-04-11T10:46:21.081Z,95330.41
2023-04-11T10:49:00.817Z,95339.06
2023-04-11T10:51:30.148Z,95336.63
2023-04-11T10:53:57.871Z,95336.41
2023-04-11T10:56:42.869Z,95332.97
2023-04-11T10:59:32.197Z,95335.94
2023-04-11T11:02:00.362Z,95329.50
2023-04-11T11:04:35.298Z,95331.56
2023-04-11T11:07:04.097Z,95329.00
2023-04-11T11:09:31.555Z,95327.66
2023-04-11T11:12:10.745Z,95344.94
2023-04-11T11:14:40.370Z,95350.56
2023-04-11T11:17:08.391Z,95332.25
2023-04-11T11:19:35.683Z,95338.47
2023-04-11T11:22:02.963Z,95333.88
2023-04-11T11:24:30.490Z,95335.25
2023-04-11T11:26:58.481Z,95326.13
2023-04-11T11:29:37.787Z,95327.81
2023-04-11T11:32:04.750Z,95330.91
2023-04-11T11:34:34.342Z,95337.75
2023-04-11T11:37:02.871Z,95336.03
2023-04-11T11:39:30.772Z,95338.28
2023-04-11T11:41:58.299Z,95344.47
2023-04-11T11:44:30.093Z,95325.63
2023-04-11T11:47:13.300Z,95333.31
2023-04-11T11:49:57.903Z,95336.50
2023-04-11T11:52:41.423Z,95344.34
2023-04-11T11:55:28.040Z,95340.91
2023-04-11T11:57:59.914Z,95347.34
2023-04-11T12:00:28.460Z,95330.75
2023-04-11T12:02:56.949Z,95329.00
2023-04-11T12:05:25.461Z,95318.53
2023-04-11T12:07:58.373Z,95316.09
2023-04-11T12:10:35.599Z,95314.34
2023-04-11T12:13:02.260Z,95313.97
2023-04-11T12:15:29.078Z,95315.66
2023-04-11T12:17:55.772Z,95314.13
2023-04-11T12:20:26.892Z,95316.88
2023-04-11T12:22:55.285Z,95320.53
2023-04-11T12:25:22.838Z,95319.78
2023-04-11T12:27:49.444Z,95323.97
2023-04-11T12:30:16.239Z,95326.97
2023-04-11T12:32:44.742Z,95334.66
2023-04-11T12:35:12.588Z,95318.88
2023-04-11T12:37:39.528Z,95315.88
2023-04-11T12:40:06.775Z,95313.56
2023-04-11T12:42:36.660Z,95322.69
2023-04-11T12:45:10.424Z,95326.25
2023-04-11T12:47:37.378Z,95329.13
2023-04-11T12:50:05.032Z,95336.03
2023-04-11T12:52:31.742Z,95315.41
2023-04-11T12:54:59.907Z,95313.81
2023-04-11T12:57:26.637Z,95315.78
2023-04-11T12:59:53.356Z,95316.59
2023-04-11T13:02:20.709Z,95314.94
2023-04-11T13:04:52.410Z,95319.56
2023-04-11T13:07:20.026Z,95313.47
2023-04-11T13:09:47.150Z,95304.00
2023-04-11T13:12:13.919Z,95302.97
2023-04-11T13:14:40.644Z,95297.28
2023-04-11T13:17:07.273Z,95289.94
2023-04-11T13:19:33.939Z,95297.66
2023-04-11T13:22:00.935Z,95301.19
2023-04-11T13:24:27.923Z,95293.31
2023-04-11T13:26:54.863Z,95283.22
2023-04-11T13:29:21.474Z,95281.69
2023-04-11T13:31:48.163Z,95271.69
2023-04-11T13:34:14.831Z,95272.00
2023-04-11T13:36:41.419Z,95277.63
2023-04-11T13:39:08.026Z,95277.53
2023-04-11T13:41:34.623Z,95281.19
2023-04-11T13:44:01.225Z,95279.91
2023-04-11T13:46:27.906Z,95272.38
2023-04-11T13:48:54.642Z,95268.09
2023-04-11T13:51:21.349Z,95258.22
2023-04-11T13:53:48.015Z,95252.00
2023-04-11T13:56:14.678Z,95249.53
2023-04-11T13:58:41.456Z,95253.50
2023-04-11T14:01:08.134Z,95259.38
2023-04-11T14:03:34.987Z,95252.34
2023-04-11T14:06:01.654Z,95251.16
2023-04-11T14:08:28.648Z,95242.44
2023-04-11T14:10:55.885Z,95240.63
2023-04-11T14:13:22.588Z,95241.34
2023-04-11T14:15:54.872Z,95240.41
2023-04-11T14:18:30.957Z,95240.75
2023-04-11T14:20:57.553Z,95244.34
2023-04-11T14:23:25.242Z,95246.03
2023-04-11T14:25:51.857Z,95244.59
2023-04-11T14:28:18.634Z,95237.06
2023-04-11T14:30:45.343Z,95235.53
2023-04-11T14:33:12.139Z,95227.03
2023-04-11T14:35:38.833Z,95230.75
2023-04-11T14:38:05.432Z,95228.34
2023-04-11T14:40:32.085Z,95228.09
2023-04-11T14:42:58.741Z,95228.69
2023-04-11T14:45:25.511Z,95225.63
2023-04-11T14:47:52.342Z,95217.75
2023-04-11T14:50:19.167Z,95219.72
2023-04-11T14:52:45.810Z,95203.13
2023-04-11T14:55:12.736Z,95207.44
2023-04-11T14:57:52.469Z,95211.75
2023-04-11T15:00:19.456Z,95202.59
2023-04-11T15:02:47.289Z,95197.28
2023-04-11T15:05:15.730Z,95196.22
2023-04-11T15:07:42.853Z,95191.06
2023-04-11T15:10:09.742Z,95193.88
2023-04-11T15:12:36.363Z,95191.22
2023-04-11T15:15:03.537Z,95184.38
2023-04-11T15:17:30.413Z,95181.13
2023-04-11T15:19:58.179Z,95174.38
2023-04-11T15:22:24.780Z,95173.13
2023-04-11T15:24:51.427Z,95169.97
2023-04-11T15:27:18.017Z,95177.56
2023-04-11T15:29:44.633Z,95171.69
2023-04-11T15:32:11.240Z,95175.56
2023-04-11T15:34:37.830Z,95172.31
2023-04-11T15:37:04.510Z,95163.63
2023-04-11T15:39:31.145Z,95157.16
2023-04-11T15:41:57.781Z,95148.09
2023-04-11T15:44:24.391Z,95145.31
2023-04-11T15:46:51.048Z,95150.06
2023-04-11T15:49:17.707Z,95148.53
2023-04-11T15:51:45.393Z,95157.25
2023-04-11T15:54:12.263Z,95145.00
2023-04-11T15:56:38.854Z,95134.94
2023-04-11T15:59:05.470Z,95139.50
2023-04-11T16:01:32.093Z,95138.44
2023-04-11T16:03:59.265Z,95130.78
2023-04-11T16:06:26.360Z,95128.81
2023-04-11T16:08:52.952Z,95114.66
2023-04-11T16:11:19.725Z,95115.19
2023-04-11T16:13:46.349Z,95118.97
2023-04-11T16:16:13.096Z,95116.81
2023-04-11T16:18:39.729Z,95122.91
2023-04-11T16:21:14.072Z,95128.38
2023-04-11T16:23:40.703Z,95124.19
2023-04-11T16:26:07.653Z,95118.47
2023-04-11T16:28:34.379Z,95129.38
2023-04-11T16:31:01.057Z,95124.66
2023-04-11T16:33:27.706Z,95115.94
2023-04-11T16:35:54.346Z,95131.69
2023-04-11T16:38:20.955Z,95119.91
2023-04-11T16:40:47.607Z,95111.19
2023-04-11T16:43:14.240Z,95101.72
2023-04-11T16:45:40.893Z,95103.81
2023-04-11T16:48:07.597Z,95095.22
2023-04-11T16:50:34.252Z,95093.81
2023-04-11T16:53:00.986Z,95095.38
2023-04-11T16:55:27.658Z,95096.81
2023-04-11T16:57:56.131Z,95096.19
2023-04-11T17:00:22.879Z,95087.03
2023-04-11T17:02:50.785Z,95096.41
2023-04-11T17:05:17.535Z,95094.09
2023-04-11T17:07:44.142Z,95096.25
2023-04-11T17:10:11.216Z,95095.06
2023-04-11T17:12:37.834Z,95092.25
2023-04-11T17:15:04.816Z,95080.63
2023-04-11T17:17:31.466Z,95092.50
2023-04-11T17:19:58.152Z,95089.59
2023-04-11T17:22:24.811Z,95098.94
2023-04-11T17:24:51.436Z,95091.69
2023-04-11T17:27:18.026Z,95089.75
2023-04-11T17:29:44.648Z,95092.09
2023-04-11T17:32:11.254Z,95087.34
2023-04-11T17:34:37.861Z,95091.09
2023-04-11T17:37:04.482Z,95082.38
2023-04-11T17:39:31.085Z,95082.66
2023-04-11T17:41:57.703Z,95083.97
2023-04-11T17:44:24.351Z,95083.41
2023-04-11T17:46:51.159Z,95084.63
2023-04-11T17:49:17.865Z,95090.19
2023-04-11T17:51:52.440Z,95084.94
2023-04-11T17:54:25.106Z,95077.69
2023-04-11T17:56:51.719Z,95079.06
2023-04-11T17:59:18.563Z,95077.69
2023-04-11T18:01:45.458Z,95084.66
2023-04-11T18:04:13.361Z,95074.16
2023-04-11T18:06:43.092Z,95078.91
2023-04-11T18:09:09.699Z,95085.56
2023-04-11T18:11:36.275Z,95085.75
2023-04-11T18:14:02.956Z,95081.47
2023-04-11T18:16:29.727Z,95081.38
2023-04-11T18:18:56.398Z,95085.56
2023-04-11T18:21:23.004Z,95080.03
2023-04-11T18:23:49.670Z,95082.75
2023-04-11T18:26:16.285Z,95083.81
2023-04-11T18:28:42.959Z,95081.06
2023-04-11T18:31:09.930Z,95075.44
2023-04-11T18:33:39.258Z,95076.41
2023-04-11T18:36:08.182Z,95078.03
2023-04-11T18:38:35.045Z,95073.00
2023-04-11T18:41:05.358Z,95085.34
2023-04-11T18:43:33.599Z,95087.03
2023-04-11T18:46:01.690Z,95073.75
2023-04-11T18:48:28.330Z,95072.69
2023-04-11T18:51:01.348Z,95079.88
2023-04-11T18:53:28.001Z,95085.19
2023-04-11T18:55:54.653Z,95073.88
2023-04-11T18:58:23.820Z,95069.69
2023-04-11T19:00:52.092Z,95090.47
2023-04-11T19:03:19.100Z,95083.09
2023-04-11T19:05:46.649Z,95088.69
2023-04-11T19:08:13.579Z,95078.56
2023-04-11T19:10:40.213Z,95087.00
2023-04-11T19:13:06.809Z,95086.56
2023-04-11T19:15:34.714Z,95093.13
2023-04-11T19:18:01.374Z,95093.38
2023-04-11T19:20:28.000Z,95094.25
2023-04-11T19:22:54.617Z,95087.63
2023-04-11T19:25:21.231Z,95077.75
2023-04-11T19:27:47.918Z,95084.59
2023-04-11T19:30:14.618Z,95083.56
2023-04-11T19:32:41.383Z,95088.91
2023-04-11T19:35:10.512Z,95076.59
2023-04-11T19:37:37.782Z,95081.28
2023-04-11T19:40:05.962Z,95078.47
2023-04-11T19:42:33.580Z,95073.38
2023-04-11T19:45:00.247Z,95072.28
2023-04-11T19:47:26.872Z,95061.69
2023-04-11T19:49:53.538Z,95066.97
2023-04-11T19:52:20.139Z,95053.25
2023-04-11T19:54:46.749Z,95051.09
2023-04-11T19:57:13.356Z,95043.44
2023-04-11T19:59:40.049Z,95047.34
2023-04-11T20:02:06.702Z,95035.34
2023-04-11T20:04:33.359Z,95029.56
2023-04-11T20:06:59.973Z,95034.13
2023-04-11T20:09:26.979Z,95022.44
2023-04-11T20:11:53.577Z,95020.63
2023-04-11T20:14:20.579Z,95018.91
2023-04-11T20:16:47.204Z,95010.69
2023-04-11T20:19:14.615Z,95009.47
2023-04-11T20:21:41.226Z,95004.34
2023-04-11T20:24:07.877Z,95010.63
2023-04-11T20:26:34.470Z,95007.47
2023-04-11T20:29:01.074Z,95003.94
2023-04-11T20:31:27.825Z,95006.28
2023-04-11T20:33:54.674Z,95006.22
2023-04-11T20:36:21.585Z,95006.22
2023-04-11T20:38:48.245Z,95000.81
2023-04-11T20:41:14.888Z,95011.38
2023-04-11T20:43:44.434Z,95017.69
2023-04-11T20:46:11.161Z,95012.78
2023-04-11T20:48:37.864Z,95003.34
2023-04-11T20:51:04.632Z,95001.84
2023-04-11T20:53:31.235Z,94999.06
2023-04-11T20:55:57.863Z,94993.34
2023-04-11T20:58:24.481Z,94991.94
2023-04-11T21:00:51.090Z,94972.84
2023-04-11T21:03:17.773Z,94973.19
2023-04-11T21:05:44.527Z,94965.59
2023-04-11T21:08:11.229Z,94959.88
2023-04-11T21:10:38.105Z,94951.59
2023-04-11T21:13:05.233Z,94945.50
2023-04-11T21:15:33.787Z,94948.50
2023-04-11T21:18:00.590Z,94946.50
2023-04-11T21:20:27.361Z,94925.72
2023-04-11T21:22:54.243Z,94921.47
2023-04-11T21:25:21.731Z,94926.25
2023-04-11T21:27:48.477Z,94930.50
2023-04-11T21:30:15.268Z,94933.63
2023-04-11T21:32:41.928Z,94925.06
2023-04-11T21:35:10.688Z,94923.78
2023-04-11T21:37:37.440Z,94914.53
2023-04-11T21:40:04.616Z,94907.47
2023-04-11T21:42:31.380Z,94901.13
2023-04-11T21:44:58.038Z,94900.25
2023-04-11T21:47:24.775Z,94898.34
2023-04-11T21:49:51.545Z,94892.41
2023-04-11T21:52:18.258Z,94899.19
2023-04-11T21:54:45.031Z,94896.44
2023-04-11T21:57:11.705Z,94895.16
2023-04-11T21:59:39.285Z,94911.19
2023-04-11T22:02:06.153Z,94933.91
2023-04-11T22:04:33.217Z,94926.84
2023-04-11T22:07:00.660Z,94905.63
2023-04-11T22:09:27.616Z,94899.91
2023-04-11T22:11:54.294Z,94893.34
2023-04-11T22:14:21.136Z,94884.16
2023-04-11T22:16:47.991Z,94887.94
2023-04-11T22:19:18.746Z,94892.16
2023-04-11T22:21:46.254Z,94894.03
2023-04-11T22:24:12.938Z,94899.97
2023-04-11T22:26:39.643Z,94887.56
2023-04-11T22:29:06.280Z,94876.19
2023-04-11T22:31:32.986Z,94868.13
2023-04-11T22:34:02.406Z,94863.84
2023-04-11T22:36:29.751Z,94867.19
2023-04-11T22:38:56.471Z,94862.72
2023-04-11T22:41:23.140Z,94854.66
2023-04-11T22:43:49.833Z,94851.41
2023-04-11T22:46:16.641Z,94838.47
2023-04-11T22:48:43.356Z,94837.66
2023-04-11T22:51:09.962Z,94832.19
2023-04-11T22:53:37.578Z,94828.63
2023-04-11T22:56:04.378Z,94823.31
2023-04-11T22:58:31.045Z,94818.50
2023-04-11T23:00:58.010Z,94816.22
2023-04-11T23:03:24.725Z,94806.25
2023-04-11T23:05:51.357Z,94801.88
2023-04-11T23:08:18.821Z,94803.13
2023-04-11T23:10:45.849Z,94793.63
2023-04-11T23:13:12.549Z,94790.59
2023-04-11T23:15:39.256Z,94787.22
2023-04-11T23:18:06.260Z,94796.41
2023-04-11T23:20:34.886Z,94802.91
2023-04-11T23:23:01.575Z,94798.81
2023-04-11T23:25:28.588Z,94809.47
2023-04-11T23:27:55.343Z,94806.41
2023-04-11T23:30:22.025Z,94794.41
2023-04-11T23:32:48.760Z,94790.91
2023-04-11T23:35:15.465Z,94787.38
2023-04-11T23:37:42.148Z,94793.88
2023-04-11T23:40:09.873Z,94776.47
2023-04-11T23:42:37.901Z,94773.00
2023-04-11T23:45:08.460Z,94768.41
2023-04-11T23:47:35.103Z,94752.34
2023-04-11T23:50:03.086Z,94748.16
2023-04-11T23:52:30.418Z,94738.72
2023-04-11T23:54:57.475Z,94733.00
2023-04-11T23:57:24.333Z,94730.63
2023-04-11T23:59:50.967Z,94723.94
